46ME weather

Calais Regional Hospital Heliport
Calais, Maine, United States

Public forecast

Using degrees Fahrenheit for public forecast. Weather courtesy of forecast.io.

Closest aviation weather report (METAR) to Calais Regional Hospital Heliport

Closest report is Fredericton Airport, 51.7 nm (95.7 km) NE. Retrieved 2020/08/04 00:00 UTC (27 minutes ago):

CYFC 040000Z AUTO 25009G17KT 210V280 9SM CLR 26/17 A2981 RMK SLP097 DENSITY ALT 1400FT

Closest aviation forecast (TAF) to Calais Regional Hospital Heliport

Closest forecast is Fredericton Airport, 51.7 nm (95.7 km) NE. Retrieved 2020-08-04 00:39 UTC (0 seconds ago):

TAF TAF CYFC 032338Z 0400/0412 24010G20KT P6SM FEW050 TEMPO 0403/0408 BKN050 BECMG 0403/0405 26008KT RMK FCST BASED ON AUTO OBS NXT FCST BY 040600Z